createdAt,value
2019-05-07T00:01:18.202Z,14.40
2019-05-07T00:03:47.593Z,14.50
2019-05-07T00:06:17.049Z,14.80
2019-05-07T00:08:46.333Z,14.07
2019-05-07T00:11:15.647Z,14.10
2019-05-07T00:13:44.930Z,14.43
2019-05-07T00:16:14.378Z,14.47
2019-05-07T00:18:43.632Z,13.93
2019-05-07T00:21:12.932Z,14.27
2019-05-07T00:23:43.297Z,14.20
2019-05-07T00:26:13.374Z,15.20
2019-05-07T00:28:43.427Z,14.37
2019-05-07T00:31:14.082Z,15.10
2019-05-07T00:33:43.833Z,14.80
2019-05-07T00:36:44.435Z,15.17
2019-05-07T00:39:32.814Z,14.50
2019-05-07T00:42:21.464Z,15.33
2019-05-07T00:45:13.134Z,14.80
2019-05-07T00:47:30.064Z,15.03
2019-05-07T00:50:03.378Z,15.47
2019-05-07T00:52:33.556Z,15.07
2019-05-07T00:55:03.105Z,15.77
2019-05-07T00:57:32.496Z,15.43
2019-05-07T01:00:02.318Z,14.40
2019-05-07T01:02:32.400Z,15.30
2019-05-07T01:05:03.037Z,15.07
2019-05-07T01:07:32.631Z,14.97
2019-05-07T01:10:02.333Z,15.37
2019-05-07T01:12:32.885Z,16.73
2019-05-07T01:15:03.062Z,17.17
2019-05-07T01:17:33.511Z,15.43
2019-05-07T01:20:03.167Z,15.77
2019-05-07T01:22:33.164Z,15.97
2019-05-07T01:25:02.709Z,15.10
2019-05-07T01:27:32.302Z,15.03
2019-05-07T01:30:02.575Z,15.07
2019-05-07T01:32:38.324Z,15.43
2019-05-07T01:35:22.320Z,14.77
2019-05-07T01:37:52.428Z,15.20
2019-05-07T01:40:22.825Z,15.17
2019-05-07T01:42:52.988Z,16.13
2019-05-07T01:45:24.936Z,15.20
2019-05-07T01:47:53.364Z,14.33
2019-05-07T01:50:22.893Z,14.73
2019-05-07T01:52:52.355Z,15.30
2019-05-07T01:55:22.563Z,14.27
2019-05-07T01:57:52.414Z,15.37
2019-05-07T02:00:22.457Z,15.53
2019-05-07T02:02:57.115Z,14.10
2019-05-07T02:05:38.636Z,14.10
2019-05-07T02:08:12.426Z,14.43
2019-05-07T02:10:45.933Z,15.60
2019-05-07T02:13:21.883Z,14.37
2019-05-07T02:15:58.496Z,15.17
2019-05-07T02:18:22.086Z,14.33
2019-05-07T02:20:52.122Z,14.50
2019-05-07T02:23:22.194Z,15.07
2019-05-07T02:25:52.654Z,16.03
2019-05-07T02:28:22.388Z,17.03
2019-05-07T02:30:53.547Z,15.00
2019-05-07T02:33:23.194Z,15.00
2019-05-07T02:35:53.495Z,14.80
2019-05-07T02:38:34.008Z,14.53
2019-05-07T02:41:14.292Z,15.00
2019-05-07T02:43:43.800Z,15.93
2019-05-07T02:46:30.950Z,14.93
2019-05-07T02:49:15.573Z,16.00
2019-05-07T02:52:13.601Z,16.07
2019-05-07T02:55:04.234Z,14.77
2019-05-07T02:57:34.337Z,15.03
2019-05-07T03:00:04.862Z,16.03
2019-05-07T03:02:34.337Z,15.73
2019-05-07T03:05:05.263Z,14.93
2019-05-07T03:07:34.990Z,15.30
2019-05-07T03:10:04.551Z,14.67
2019-05-07T03:12:34.173Z,15.03
2019-05-07T03:15:04.501Z,14.97
2019-05-07T03:17:34.240Z,15.27
2019-05-07T03:20:05.570Z,15.57
2019-05-07T03:22:34.932Z,15.93
2019-05-07T03:25:13.383Z,15.03
2019-05-07T03:27:43.139Z,16.23
2019-05-07T03:30:35.936Z,15.00
2019-05-07T03:33:19.306Z,15.50
2019-05-07T03:35:56.211Z,16.70
2019-05-07T03:38:23.006Z,15.60
2019-05-07T03:40:53.195Z,15.90
2019-05-07T03:43:24.168Z,16.67
2019-05-07T03:45:59.284Z,17.03
2019-05-07T03:48:33.034Z,17.10
2019-05-07T03:51:03.619Z,14.83
2019-05-07T03:53:33.806Z,16.63
2019-05-07T03:56:04.190Z,14.60
2019-05-07T03:58:34.308Z,15.90
2019-05-07T04:01:04.522Z,15.73
2019-05-07T04:03:34.580Z,15.30
2019-05-07T04:06:04.438Z,16.03
2019-05-07T04:08:33.917Z,15.73
2019-05-07T04:11:04.011Z,15.93
2019-05-07T04:13:33.974Z,15.73
2019-05-07T04:16:04.196Z,15.70
2019-05-07T04:18:33.983Z,15.97
2019-05-07T04:21:04.062Z,15.93
2019-05-07T04:23:34.475Z,16.43
2019-05-07T04:26:23.257Z,16.30
2019-05-07T04:29:05.569Z,15.00
2019-05-07T04:31:37.993Z,16.23
2019-05-07T04:34:13.594Z,15.17
2019-05-07T04:36:48.721Z,15.93
2019-05-07T04:39:18.015Z,14.77
2019-05-07T04:41:47.655Z,14.83
2019-05-07T04:44:17.354Z,15.70
2019-05-07T04:46:48.164Z,16.33
2019-05-07T04:49:17.866Z,15.47
2019-05-07T04:51:56.066Z,14.57
2019-05-07T04:54:25.480Z,15.13
2019-05-07T04:56:54.842Z,14.57
2019-05-07T04:59:24.592Z,14.70
2019-05-07T05:02:00.406Z,14.17
2019-05-07T05:04:34.349Z,14.50
2019-05-07T05:07:02.583Z,13.20
2019-05-07T05:09:32.953Z,14.53
2019-05-07T05:12:02.958Z,14.47
2019-05-07T05:14:33.841Z,13.73
2019-05-07T05:17:03.721Z,16.10
2019-05-07T05:19:33.028Z,15.43
2019-05-07T05:22:27.279Z,16.57
2019-05-07T05:25:18.508Z,14.37
2019-05-07T05:27:47.866Z,16.60
2019-05-07T05:30:23.389Z,17.57
2019-05-07T05:32:52.863Z,21.33
2019-05-07T05:35:22.311Z,18.10
2019-05-07T05:37:52.141Z,16.63
2019-05-07T05:40:22.825Z,14.00
2019-05-07T05:43:02.013Z,14.07
2019-05-07T05:45:34.554Z,13.70
2019-05-07T05:48:08.077Z,14.30
2019-05-07T05:51:07.732Z,21.33
2019-05-07T05:54:01.899Z,17.17
2019-05-07T05:56:43.248Z,14.80
2019-05-07T05:59:25.285Z,13.20
2019-05-07T06:02:19.733Z,13.57
2019-05-07T06:05:17.196Z,14.80
2019-05-07T06:07:54.337Z,11.57
2019-05-07T06:10:46.385Z,13.47
2019-05-07T06:13:37.722Z,12.33
2019-05-07T06:16:12.575Z,12.00
2019-05-07T06:18:57.664Z,13.50
2019-05-07T06:21:44.761Z,13.77
2019-05-07T06:24:16.423Z,12.97
2019-05-07T06:26:46.092Z,12.80
2019-05-07T06:29:15.653Z,13.23
2019-05-07T06:31:46.627Z,12.90
2019-05-07T06:34:15.972Z,13.40
2019-05-07T06:36:45.568Z,12.73
2019-05-07T06:39:22.137Z,13.57
2019-05-07T06:42:09.296Z,12.60
2019-05-07T06:44:38.927Z,11.50
2019-05-07T06:47:08.662Z,12.40
2019-05-07T06:49:38.112Z,12.37
2019-05-07T06:52:07.539Z,12.37
2019-05-07T06:54:37.182Z,11.93
2019-05-07T06:57:06.857Z,12.20
2019-05-07T06:59:44.584Z,11.77
2019-05-07T07:02:28.470Z,12.03
2019-05-07T07:05:04.343Z,12.63
2019-05-07T07:07:42.421Z,11.27
2019-05-07T07:10:32.198Z,11.60
2019-05-07T07:13:02.467Z,9.53
2019-05-07T07:15:32.208Z,10.17
2019-05-07T07:18:03.178Z,10.23
2019-05-07T07:20:35.892Z,10.00
2019-05-07T07:23:05.671Z,10.10
2019-05-07T07:25:35.721Z,9.10
2019-05-07T07:28:06.998Z,9.47
2019-05-07T07:30:47.261Z,9.57
2019-05-07T07:33:17.244Z,9.63
2019-05-07T07:35:47.061Z,8.43
2019-05-07T07:38:33.114Z,9.10
2019-05-07T07:41:23.557Z,8.80
2019-05-07T07:43:53.352Z,10.73
2019-05-07T07:46:22.771Z,10.73
2019-05-07T07:49:04.490Z,10.53
2019-05-07T07:51:38.071Z,9.50
2019-05-07T07:53:54.679Z,10.80
2019-05-07T07:56:45.401Z,10.07
2019-05-07T07:59:23.203Z,10.30
2019-05-07T08:02:07.977Z,10.73
2019-05-07T08:04:37.465Z,9.50
2019-05-07T08:07:06.851Z,9.97
2019-05-07T08:09:36.442Z,8.40
2019-05-07T08:12:06.267Z,9.87
2019-05-07T08:14:36.000Z,7.93
2019-05-07T08:17:07.222Z,8.07
2019-05-07T08:19:37.311Z,8.53
2019-05-07T08:22:06.763Z,7.93
2019-05-07T08:24:37.887Z,8.47
2019-05-07T08:27:07.453Z,7.00
2019-05-07T08:29:37.043Z,7.47
2019-05-07T08:32:28.855Z,8.30
2019-05-07T08:35:06.879Z,7.53
2019-05-07T08:37:36.674Z,7.83
2019-05-07T08:40:06.352Z,8.70
2019-05-07T08:42:35.838Z,7.57
2019-05-07T08:45:25.018Z,7.60
2019-05-07T08:47:56.243Z,9.17
2019-05-07T08:50:25.704Z,7.80
2019-05-07T08:52:55.243Z,7.17
2019-05-07T08:55:25.363Z,6.87
2019-05-07T08:57:54.830Z,5.77
2019-05-07T09:00:24.474Z,7.33
2019-05-07T09:02:54.431Z,12.47
2019-05-07T09:05:24.017Z,8.60
2019-05-07T09:07:53.644Z,7.20
2019-05-07T09:10:25.037Z,6.27
2019-05-07T09:12:54.951Z,6.50
2019-05-07T09:15:24.926Z,6.87
2019-05-07T09:17:54.949Z,6.60
2019-05-07T09:20:25.068Z,7.20
2019-05-07T09:22:54.859Z,6.07
2019-05-07T09:25:24.659Z,6.70
2019-05-07T09:27:54.656Z,6.83
2019-05-07T09:30:43.281Z,6.30
2019-05-07T09:33:32.010Z,7.87
2019-05-07T09:36:02.342Z,6.93
2019-05-07T09:38:32.766Z,9.27
2019-05-07T09:41:02.961Z,7.77
2019-05-07T09:43:32.689Z,6.90
2019-05-07T09:46:02.663Z,8.03
2019-05-07T09:48:33.945Z,7.03
2019-05-07T09:51:03.627Z,5.07
2019-05-07T09:53:32.963Z,5.73
2019-05-07T09:56:02.749Z,5.70
2019-05-07T09:58:38.495Z,5.37
2019-05-07T10:01:03.549Z,6.03
2019-05-07T10:03:33.842Z,5.97
2019-05-07T10:06:07.915Z,8.10
2019-05-07T10:08:43.565Z,6.77
2019-05-07T10:11:17.233Z,6.00
2019-05-07T10:13:58.605Z,6.13
2019-05-07T10:16:37.751Z,5.70
2019-05-07T10:19:07.579Z,5.57
2019-05-07T10:21:38.579Z,5.23
2019-05-07T10:24:08.286Z,6.77
2019-05-07T10:26:40.138Z,6.00
2019-05-07T10:29:12.983Z,6.07
2019-05-07T10:31:43.372Z,5.73
2019-05-07T10:34:15.687Z,6.17
2019-05-07T10:36:45.576Z,5.63
2019-05-07T10:39:16.596Z,7.30
2019-05-07T10:41:47.042Z,6.57
2019-05-07T10:44:22.894Z,5.83
2019-05-07T10:47:05.146Z,5.73
2019-05-07T10:49:55.718Z,5.23
2019-05-07T10:52:28.440Z,5.80
2019-05-07T10:55:02.689Z,6.40
2019-05-07T10:57:32.882Z,6.67
2019-05-07T11:00:04.590Z,7.47
2019-05-07T11:02:35.494Z,9.07
2019-05-07T11:05:07.433Z,6.77
2019-05-07T11:07:42.230Z,6.47
2019-05-07T11:10:12.516Z,6.77
2019-05-07T11:12:42.687Z,6.47
2019-05-07T11:15:16.304Z,6.43
2019-05-07T11:17:55.706Z,6.93
2019-05-07T11:20:26.335Z,8.03
2019-05-07T11:22:57.040Z,7.07
2019-05-07T11:25:26.673Z,7.93
2019-05-07T11:27:56.190Z,7.60
2019-05-07T11:30:28.253Z,7.13
2019-05-07T11:33:02.684Z,6.10
2019-05-07T11:35:33.030Z,8.07
2019-05-07T11:38:17.408Z,8.43
2019-05-07T11:40:34.980Z,8.07
2019-05-07T11:43:22.119Z,7.70
2019-05-07T11:46:01.553Z,8.30
2019-05-07T11:48:34.502Z,7.73
2019-05-07T11:51:36.743Z,7.63
2019-05-07T11:54:15.987Z,7.03
2019-05-07T11:56:45.671Z,7.13
2019-05-07T11:59:15.916Z,12.20
2019-05-07T12:01:49.283Z,7.40
2019-05-07T12:04:19.565Z,6.63
2019-05-07T12:06:49.402Z,7.23
2019-05-07T12:09:23.247Z,6.60
2019-05-07T12:11:55.039Z,8.23
2019-05-07T12:14:30.943Z,9.87
2019-05-07T12:16:58.435Z,7.50
2019-05-07T12:19:29.491Z,7.60
2019-05-07T12:21:59.735Z,7.43
2019-05-07T12:24:29.197Z,9.27
2019-05-07T12:26:58.690Z,11.77
2019-05-07T12:29:28.436Z,8.43
2019-05-07T12:32:15.353Z,7.90
2019-05-07T12:34:54.901Z,8.80
2019-05-07T12:37:24.555Z,8.30
2019-05-07T12:39:54.295Z,10.00
2019-05-07T12:42:23.761Z,9.83
2019-05-07T12:44:53.247Z,9.57
2019-05-07T12:47:22.836Z,8.33
2019-05-07T12:49:52.327Z,8.83
2019-05-07T12:52:26.107Z,8.70
2019-05-07T12:55:03.302Z,10.37
2019-05-07T12:57:33.034Z,9.47
2019-05-07T13:00:20.108Z,8.70
2019-05-07T13:03:07.187Z,8.77
2019-05-07T13:05:37.636Z,8.90
2019-05-07T13:08:07.578Z,9.03
2019-05-07T13:10:37.392Z,9.57
2019-05-07T13:13:07.311Z,9.60
2019-05-07T13:15:36.860Z,8.40
2019-05-07T13:18:06.467Z,8.00
2019-05-07T13:20:38.152Z,6.30
2019-05-07T13:23:07.628Z,6.50
2019-05-07T13:25:38.235Z,6.63
2019-05-07T13:28:08.239Z,5.73
2019-05-07T13:30:37.756Z,5.87
2019-05-07T13:33:07.538Z,7.17
2019-05-07T13:35:37.648Z,7.63
2019-05-07T13:38:25.200Z,8.57
2019-05-07T13:41:16.579Z,8.27
2019-05-07T13:44:12.347Z,8.73
2019-05-07T13:46:44.919Z,7.73
2019-05-07T13:49:15.673Z,7.20
2019-05-07T13:51:45.719Z,7.17
2019-05-07T13:54:15.443Z,7.40
2019-05-07T13:56:45.251Z,6.83
2019-05-07T13:59:14.773Z,7.33
2019-05-07T14:01:50.833Z,7.63
2019-05-07T14:04:22.231Z,7.97
2019-05-07T14:06:52.951Z,8.60
2019-05-07T14:09:24.488Z,9.30
2019-05-07T14:11:54.347Z,8.53
2019-05-07T14:14:24.178Z,8.60
2019-05-07T14:16:53.549Z,8.63
2019-05-07T14:19:25.021Z,8.70
2019-05-07T14:21:56.510Z,8.80
2019-05-07T14:24:27.813Z,8.90
2019-05-07T14:26:57.928Z,9.80
2019-05-07T14:29:27.410Z,9.00
2019-05-07T14:32:15.802Z,8.93
2019-05-07T14:35:02.915Z,8.33
2019-05-07T14:37:38.734Z,8.07
2019-05-07T14:40:08.806Z,7.80
2019-05-07T14:42:43.144Z,8.23
2019-05-07T14:45:12.828Z,8.73
2019-05-07T14:47:44.392Z,8.97
2019-05-07T14:50:13.700Z,8.10
2019-05-07T14:52:43.497Z,8.10
2019-05-07T14:55:13.320Z,8.97
2019-05-07T14:57:43.192Z,7.57
2019-05-07T15:00:13.085Z,8.17
2019-05-07T15:02:42.573Z,7.33
2019-05-07T15:05:12.843Z,13.87
2019-05-07T15:07:42.495Z,8.23
2019-05-07T15:10:12.133Z,7.70
2019-05-07T15:12:42.618Z,7.97
2019-05-07T15:15:12.672Z,7.77
2019-05-07T15:18:07.495Z,9.17
2019-05-07T15:20:47.613Z,7.73
2019-05-07T15:23:29.800Z,7.63
2019-05-07T15:26:02.062Z,7.73
2019-05-07T15:28:32.181Z,8.17
2019-05-07T15:31:13.930Z,7.93
2019-05-07T15:33:43.812Z,7.30
2019-05-07T15:36:13.234Z,9.27
2019-05-07T15:38:43.526Z,12.20
2019-05-07T15:41:13.478Z,8.60
2019-05-07T15:43:45.555Z,8.10
2019-05-07T15:46:14.244Z,7.90
2019-05-07T15:48:43.589Z,8.20
2019-05-07T15:51:12.966Z,7.70
2019-05-07T15:53:47.456Z,7.27
2019-05-07T15:56:16.919Z,6.60
2019-05-07T15:58:46.285Z,7.37
2019-05-07T16:01:15.846Z,9.70
2019-05-07T16:03:46.255Z,9.00
2019-05-07T16:06:16.388Z,7.93
2019-05-07T16:08:51.810Z,6.43
2019-05-07T16:11:23.271Z,6.87
2019-05-07T16:14:14.968Z,8.03
2019-05-07T16:16:46.301Z,10.17
2019-05-07T16:19:34.752Z,7.73
2019-05-07T16:22:09.207Z,8.10
2019-05-07T16:24:39.134Z,9.77
2019-05-07T16:27:11.968Z,7.57
2019-05-07T16:29:42.079Z,7.53
2019-05-07T16:32:11.606Z,7.60
2019-05-07T16:34:42.963Z,8.03
2019-05-07T16:37:12.513Z,8.20
2019-05-07T16:39:42.256Z,7.60
2019-05-07T16:42:11.866Z,7.67
2019-05-07T16:44:41.815Z,8.23
2019-05-07T16:47:12.168Z,7.90
2019-05-07T16:49:42.602Z,8.83
2019-05-07T16:52:12.576Z,8.10
2019-05-07T16:54:44.869Z,7.40
2019-05-07T16:57:22.684Z,8.47
2019-05-07T16:59:52.285Z,7.53
2019-05-07T17:02:25.758Z,6.77
2019-05-07T17:05:12.152Z,8.67
2019-05-07T17:07:47.490Z,14.03
2019-05-07T17:10:17.068Z,7.67
2019-05-07T17:12:46.795Z,7.23
2019-05-07T17:15:16.604Z,6.83
2019-05-07T17:17:46.454Z,15.30
2019-05-07T17:20:16.187Z,7.43
2019-05-07T17:22:45.985Z,8.57
2019-05-07T17:25:33.443Z,6.97
2019-05-07T17:28:03.317Z,7.43
2019-05-07T17:30:32.744Z,7.20
2019-05-07T17:33:02.252Z,7.20
2019-05-07T17:35:34.377Z,6.50
2019-05-07T17:38:07.192Z,6.70
2019-05-07T17:40:34.253Z,8.43
2019-05-07T17:43:03.756Z,15.97
2019-05-07T17:45:33.203Z,8.50
2019-05-07T17:48:03.112Z,8.77
2019-05-07T17:50:47.487Z,8.73
2019-05-07T17:53:17.053Z,8.20
2019-05-07T17:55:47.260Z,7.93
2019-05-07T17:58:17.209Z,8.40
2019-05-07T18:00:52.911Z,9.03
2019-05-07T18:03:34.226Z,10.03
2019-05-07T18:06:04.326Z,9.20
2019-05-07T18:08:34.103Z,9.40
2019-05-07T18:11:17.429Z,8.43
2019-05-07T18:13:35.251Z,8.83
2019-05-07T18:16:29.836Z,7.37
2019-05-07T18:19:01.992Z,8.50
2019-05-07T18:21:32.604Z,9.40
2019-05-07T18:24:13.322Z,10.10
2019-05-07T18:26:34.161Z,8.40
2019-05-07T18:29:03.695Z,8.67
2019-05-07T18:31:51.586Z,10.23
2019-05-07T18:34:21.703Z,7.77
2019-05-07T18:36:53.160Z,7.90
2019-05-07T18:39:24.728Z,9.03
2019-05-07T18:41:54.784Z,9.43
2019-05-07T18:44:25.326Z,9.27
2019-05-07T18:46:55.433Z,12.30
2019-05-07T18:49:25.001Z,10.30
2019-05-07T18:51:54.759Z,9.73
2019-05-07T18:54:30.311Z,9.93
2019-05-07T18:56:55.460Z,14.73
2019-05-07T18:59:26.741Z,11.43
2019-05-07T19:01:56.655Z,9.13
2019-05-07T19:04:26.229Z,9.57
2019-05-07T19:06:55.692Z,9.40
2019-05-07T19:09:25.149Z,10.53
2019-05-07T19:11:54.959Z,10.73
2019-05-07T19:14:24.694Z,9.83
2019-05-07T19:16:54.167Z,9.50
2019-05-07T19:19:23.571Z,10.40
2019-05-07T19:21:53.191Z,9.60
2019-05-07T19:24:26.033Z,10.43
2019-05-07T19:26:54.378Z,12.73
2019-05-07T19:29:23.709Z,9.80
2019-05-07T19:31:53.193Z,9.87
2019-05-07T19:34:22.720Z,9.43
2019-05-07T19:36:52.274Z,9.73
2019-05-07T19:39:23.348Z,10.10
2019-05-07T19:41:53.460Z,10.00
2019-05-07T19:44:23.061Z,9.63
2019-05-07T19:46:52.660Z,10.27
2019-05-07T19:49:22.523Z,11.30
2019-05-07T19:51:52.462Z,11.03
2019-05-07T19:54:22.771Z,11.40
2019-05-07T19:56:52.821Z,11.93
2019-05-07T19:59:22.443Z,10.90
2019-05-07T20:01:56.339Z,10.83
2019-05-07T20:04:26.290Z,11.87
2019-05-07T20:06:55.915Z,10.73
2019-05-07T20:09:29.530Z,12.53
2019-05-07T20:11:59.030Z,12.47
2019-05-07T20:14:28.551Z,13.80
2019-05-07T20:16:58.255Z,12.47
2019-05-07T20:19:27.755Z,11.77
2019-05-07T20:21:57.464Z,11.60
2019-05-07T20:24:26.967Z,12.27
2019-05-07T20:26:56.367Z,12.83
2019-05-07T20:29:25.883Z,11.70
2019-05-07T20:31:55.356Z,12.23
2019-05-07T20:34:24.823Z,11.97
2019-05-07T20:36:54.377Z,10.73
2019-05-07T20:39:23.991Z,11.93
2019-05-07T20:41:53.528Z,12.10
2019-05-07T20:44:23.199Z,11.83
2019-05-07T20:46:53.578Z,11.60
2019-05-07T20:49:23.553Z,11.73
2019-05-07T20:51:53.384Z,11.33
2019-05-07T20:54:42.827Z,11.30
2019-05-07T20:57:15.779Z,10.53
2019-05-07T20:59:45.409Z,11.87
2019-05-07T21:02:14.912Z,10.53
2019-05-07T21:04:44.525Z,11.97
2019-05-07T21:07:14.247Z,11.37
2019-05-07T21:09:44.035Z,11.70
2019-05-07T21:12:13.673Z,12.33
2019-05-07T21:14:43.284Z,11.90
2019-05-07T21:17:12.832Z,11.77
2019-05-07T21:19:42.892Z,12.33
2019-05-07T21:22:13.166Z,12.10
2019-05-07T21:24:42.627Z,12.60
2019-05-07T21:27:12.418Z,13.00
2019-05-07T21:29:42.355Z,13.07
2019-05-07T21:32:12.533Z,12.70
2019-05-07T21:34:42.306Z,12.73
2019-05-07T21:37:12.573Z,12.47
2019-05-07T21:39:43.237Z,12.60
2019-05-07T21:42:14.306Z,12.83
2019-05-07T21:44:43.957Z,12.70
2019-05-07T21:47:13.986Z,12.73
2019-05-07T21:49:43.540Z,12.23
2019-05-07T21:52:12.992Z,13.30
2019-05-07T21:55:13.513Z,12.43
2019-05-07T21:58:02.397Z,12.70
2019-05-07T22:00:54.117Z,12.33
2019-05-07T22:03:23.679Z,12.40
2019-05-07T22:06:03.742Z,12.00
2019-05-07T22:08:33.765Z,11.40
2019-05-07T22:11:06.406Z,12.77
2019-05-07T22:13:40.596Z,12.47
2019-05-07T22:16:19.118Z,11.83
2019-05-07T22:18:58.927Z,12.57
2019-05-07T22:21:45.264Z,12.60
2019-05-07T22:24:26.513Z,11.77
2019-05-07T22:27:04.201Z,11.17
2019-05-07T22:29:56.988Z,11.10
2019-05-07T22:32:59.611Z,10.53
2019-05-07T22:35:52.286Z,10.70
2019-05-07T22:38:22.691Z,11.10
2019-05-07T22:40:51.774Z,10.77
2019-05-07T22:43:22.617Z,11.47
2019-05-07T22:45:52.231Z,11.07
2019-05-07T22:48:22.968Z,10.03
2019-05-07T22:50:52.536Z,10.37
2019-05-07T22:53:22.121Z,10.83
2019-05-07T22:55:52.486Z,11.03
2019-05-07T22:58:32.582Z,11.13
2019-05-07T23:01:05.839Z,11.10
2019-05-07T23:03:35.333Z,11.17
2019-05-07T23:06:07.790Z,11.27
2019-05-07T23:08:42.416Z,12.77
2019-05-07T23:11:12.215Z,12.23
2019-05-07T23:13:42.851Z,13.20
2019-05-07T23:16:12.736Z,11.80
2019-05-07T23:18:42.872Z,13.77
2019-05-07T23:21:12.746Z,13.70
2019-05-07T23:23:42.401Z,12.70
2019-05-07T23:26:14.492Z,13.13
2019-05-07T23:28:42.928Z,12.23
2019-05-07T23:31:12.351Z,13.00
2019-05-07T23:33:41.867Z,15.43
2019-05-07T23:36:12.942Z,13.27
2019-05-07T23:38:42.757Z,15.30
2019-05-07T23:41:29.835Z,13.73
2019-05-07T23:44:13.807Z,13.93
2019-05-07T23:46:44.772Z,13.90
2019-05-07T23:49:14.627Z,15.53
2019-05-07T23:51:44.055Z,14.80
2019-05-07T23:54:13.403Z,13.37
2019-05-07T23:56:43.079Z,14.97
2019-05-07T23:59:14.852Z,15.80
